createdAt,value
2018-05-11T00:01:47.155Z,8.17
2018-05-11T00:04:16.120Z,8.93
2018-05-11T00:06:44.542Z,9.43
2018-05-11T00:09:12.939Z,9.60
2018-05-11T00:11:41.369Z,9.80
2018-05-11T00:14:09.044Z,9.33
2018-05-11T00:16:37.456Z,10.33
2018-05-11T00:19:05.511Z,10.83
2018-05-11T00:21:33.578Z,12.13
2018-05-11T00:24:02.010Z,12.23
2018-05-11T00:26:31.011Z,13.03
2018-05-11T00:28:59.800Z,13.53
2018-05-11T00:31:28.602Z,15.23
2018-05-11T00:33:57.571Z,15.83
2018-05-11T00:36:26.502Z,14.77
2018-05-11T00:38:55.309Z,16.10
2018-05-11T00:41:23.723Z,17.13
2018-05-11T00:43:53.003Z,15.57
2018-05-11T00:46:21.955Z,16.73
2018-05-11T00:48:51.599Z,15.17
2018-05-11T00:51:20.030Z,17.47
2018-05-11T00:53:47.733Z,17.50
2018-05-11T00:56:16.167Z,16.60
2018-05-11T00:58:45.190Z,17.00
2018-05-11T01:01:14.176Z,16.20
2018-05-11T01:03:42.581Z,18.20
2018-05-11T01:06:11.588Z,18.87
2018-05-11T01:08:39.254Z,19.17
2018-05-11T01:11:06.922Z,20.17
2018-05-11T01:13:34.594Z,19.33
2018-05-11T01:16:02.981Z,17.47
2018-05-11T01:18:32.141Z,18.20
2018-05-11T01:21:00.577Z,18.83
2018-05-11T01:23:28.211Z,18.03
2018-05-11T01:25:56.668Z,17.20
2018-05-11T01:28:24.743Z,18.37
2018-05-11T01:30:53.229Z,19.57
2018-05-11T01:33:22.230Z,19.33
2018-05-11T01:35:49.872Z,18.27
2018-05-11T01:38:17.644Z,19.90
2018-05-11T01:40:46.028Z,18.80
2018-05-11T01:43:15.171Z,19.50
2018-05-11T01:45:43.223Z,18.33
2018-05-11T01:48:12.238Z,17.80
2018-05-11T01:50:41.222Z,20.37
2018-05-11T01:53:09.645Z,18.47
2018-05-11T01:55:38.650Z,17.90
2018-05-11T01:58:07.050Z,16.63
2018-05-11T02:00:34.831Z,17.10
2018-05-11T02:03:03.345Z,18.47
2018-05-11T02:05:32.497Z,18.07
2018-05-11T02:08:00.540Z,19.10
2018-05-11T02:10:28.272Z,18.93
2018-05-11T02:12:56.309Z,18.23
2018-05-11T02:15:24.712Z,18.73
2018-05-11T02:17:53.895Z,19.63
2018-05-11T02:20:23.045Z,17.70
2018-05-11T02:22:52.060Z,18.47
2018-05-11T02:25:20.127Z,17.93
2018-05-11T02:27:48.939Z,18.87
2018-05-11T02:30:16.991Z,18.70
2018-05-11T02:32:45.171Z,18.37
2018-05-11T02:35:13.576Z,19.13
2018-05-11T02:37:42.558Z,19.80
2018-05-11T02:40:11.346Z,18.73
2018-05-11T02:42:39.760Z,19.20
2018-05-11T02:45:07.432Z,19.03
2018-05-11T02:47:35.812Z,18.70
2018-05-11T02:50:04.661Z,19.13
2018-05-11T02:52:33.812Z,17.27
2018-05-11T02:55:02.815Z,17.43
2018-05-11T02:57:30.900Z,19.03
2018-05-11T02:59:58.688Z,18.30
2018-05-11T03:02:27.666Z,19.33
2018-05-11T03:04:56.103Z,19.63
2018-05-11T03:07:24.637Z,20.93
2018-05-11T03:09:53.616Z,19.63
2018-05-11T03:12:22.033Z,18.80
2018-05-11T03:14:50.473Z,18.90
2018-05-11T03:17:18.251Z,19.37
2018-05-11T03:19:46.680Z,18.93
2018-05-11T03:22:14.349Z,18.60
2018-05-11T03:24:42.405Z,20.37
2018-05-11T03:27:10.471Z,19.57
2018-05-11T03:29:38.568Z,20.80
2018-05-11T03:32:07.828Z,19.87
2018-05-11T03:34:36.259Z,19.17
2018-05-11T03:37:04.297Z,18.50
2018-05-11T03:39:33.817Z,20.23
2018-05-11T03:42:02.226Z,20.03
2018-05-11T03:44:31.364Z,21.00
2018-05-11T03:46:59.035Z,20.77
2018-05-11T03:49:27.045Z,21.13
2018-05-11T03:51:55.473Z,21.47
2018-05-11T03:54:23.093Z,20.17
2018-05-11T03:56:51.263Z,21.47
2018-05-11T03:59:18.886Z,21.50
2018-05-11T04:01:59.608Z,20.80
2018-05-11T04:04:38.903Z,21.37
2018-05-11T04:07:18.784Z,23.03
2018-05-11T04:09:46.895Z,23.10
2018-05-11T04:12:14.667Z,22.57
2018-05-11T04:14:43.597Z,23.10
2018-05-11T04:17:11.264Z,23.37
2018-05-11T04:19:40.081Z,23.50
2018-05-11T04:22:08.830Z,23.67
2018-05-11T04:24:37.688Z,22.53
2018-05-11T04:27:06.472Z,19.33
2018-05-11T04:29:34.143Z,18.83
2018-05-11T04:32:02.560Z,18.40
2018-05-11T04:34:31.276Z,17.53
2018-05-11T04:36:59.664Z,18.20
2018-05-11T04:39:27.315Z,17.37
2018-05-11T04:41:55.719Z,14.53
2018-05-11T04:44:23.393Z,15.17
2018-05-11T04:46:51.862Z,14.00
2018-05-11T04:49:20.264Z,12.43
2018-05-11T04:51:49.287Z,12.57
2018-05-11T04:54:17.686Z,13.07
2018-05-11T04:56:46.716Z,12.63
2018-05-11T04:59:14.373Z,14.27
2018-05-11T05:01:42.433Z,12.73
2018-05-11T05:04:11.444Z,13.57
2018-05-11T05:06:39.094Z,11.97
2018-05-11T05:09:07.233Z,13.17
2018-05-11T05:11:35.981Z,13.13
2018-05-11T05:14:04.784Z,13.00
2018-05-11T05:16:32.439Z,13.83
2018-05-11T05:19:01.022Z,14.07
2018-05-11T05:21:29.384Z,13.93
2018-05-11T05:23:58.189Z,13.80
2018-05-11T05:26:27.365Z,12.70
2018-05-11T05:28:55.783Z,13.77
2018-05-11T05:31:23.434Z,12.00
2018-05-11T05:33:51.481Z,14.33
2018-05-11T05:36:19.902Z,12.10
2018-05-11T05:38:49.025Z,12.90
2018-05-11T05:41:18.335Z,12.07
2018-05-11T05:43:45.966Z,13.87
2018-05-11T05:46:14.001Z,12.90
2018-05-11T05:48:41.660Z,13.53
2018-05-11T05:51:10.062Z,13.80
2018-05-11T05:53:38.491Z,13.77
2018-05-11T05:56:07.622Z,13.47
2018-05-11T05:58:36.469Z,13.80
2018-05-11T06:01:04.067Z,14.47
2018-05-11T06:03:32.107Z,13.90
2018-05-11T06:06:01.102Z,13.83
2018-05-11T06:08:29.177Z,14.57
2018-05-11T06:10:56.993Z,13.87
2018-05-11T06:13:25.700Z,14.43
2018-05-11T06:15:54.133Z,13.63
2018-05-11T06:18:21.764Z,14.40
2018-05-11T06:20:50.227Z,13.60
2018-05-11T06:23:19.022Z,12.83
2018-05-11T06:25:47.799Z,12.10
2018-05-11T06:28:16.625Z,12.27
2018-05-11T06:30:45.079Z,12.70
2018-05-11T06:33:14.236Z,11.73
2018-05-11T06:35:41.902Z,12.83
2018-05-11T06:38:09.957Z,11.93
2018-05-11T06:40:38.089Z,11.23
2018-05-11T06:43:06.208Z,11.80
2018-05-11T06:45:34.594Z,11.70
2018-05-11T06:48:02.645Z,11.47
2018-05-11T06:50:30.330Z,12.10
2018-05-11T06:52:57.984Z,10.57
2018-05-11T06:55:26.090Z,11.73
2018-05-11T06:57:54.533Z,10.23
2018-05-11T07:00:22.183Z,10.30
2018-05-11T07:02:49.825Z,10.23
2018-05-11T07:05:17.879Z,10.33
2018-05-11T07:07:46.675Z,10.23
2018-05-11T07:10:15.483Z,10.10
2018-05-11T07:12:43.895Z,9.70
2018-05-11T07:15:11.943Z,9.30
2018-05-11T07:17:40.352Z,9.50
2018-05-11T07:20:08.744Z,9.43
2018-05-11T07:22:36.429Z,8.40
2018-05-11T07:25:05.208Z,9.60
2018-05-11T07:27:33.273Z,8.70
2018-05-11T07:30:02.406Z,8.90
2018-05-11T07:32:30.846Z,8.60
2018-05-11T07:34:58.481Z,8.67
2018-05-11T07:37:26.911Z,8.53
2018-05-11T07:39:55.748Z,8.30
2018-05-11T07:42:24.129Z,8.40
2018-05-11T07:44:52.209Z,8.30
2018-05-11T07:47:20.283Z,7.47
2018-05-11T07:49:49.468Z,8.03
2018-05-11T07:52:17.859Z,8.83
2018-05-11T07:54:45.474Z,8.20
2018-05-11T07:57:13.551Z,7.77
2018-05-11T07:59:42.291Z,8.13
2018-05-11T08:02:10.721Z,7.67
2018-05-11T08:04:38.505Z,7.37
2018-05-11T08:07:06.899Z,8.40
2018-05-11T08:09:34.534Z,7.80
2018-05-11T08:12:03.004Z,8.13
2018-05-11T08:14:30.645Z,8.33
2018-05-11T08:16:59.445Z,7.70
2018-05-11T08:19:28.270Z,7.50
2018-05-11T08:21:56.309Z,7.90
2018-05-11T08:24:24.773Z,8.13
2018-05-11T08:26:53.640Z,7.30
2018-05-11T08:29:22.413Z,6.80
2018-05-11T08:31:50.180Z,8.00
2018-05-11T08:34:18.654Z,7.97
2018-05-11T08:36:47.033Z,6.67
2018-05-11T08:39:15.980Z,7.03
2018-05-11T08:41:44.995Z,6.33
2018-05-11T08:44:12.624Z,6.53
2018-05-11T08:46:40.679Z,6.07
2018-05-11T08:49:09.682Z,6.07
2018-05-11T08:51:38.127Z,7.97
2018-05-11T08:54:06.978Z,7.87
2018-05-11T08:56:35.751Z,7.63
2018-05-11T08:59:04.188Z,7.10
2018-05-11T09:01:34.186Z,7.00
2018-05-11T09:04:02.308Z,6.50
2018-05-11T09:06:30.743Z,6.43
2018-05-11T09:08:59.172Z,6.37
2018-05-11T09:11:27.950Z,6.07
2018-05-11T09:13:56.183Z,6.40
2018-05-11T09:16:24.594Z,7.17
2018-05-11T09:18:53.380Z,6.97
2018-05-11T09:21:21.206Z,6.10
2018-05-11T09:23:49.960Z,6.53
2018-05-11T09:26:17.985Z,6.20
2018-05-11T09:28:45.650Z,5.83
2018-05-11T09:31:14.052Z,6.20
2018-05-11T09:33:42.867Z,5.93
2018-05-11T09:36:11.295Z,6.40
2018-05-11T09:38:38.945Z,5.77
2018-05-11T09:41:06.980Z,6.17
2018-05-11T09:43:35.411Z,7.67
2018-05-11T09:46:04.616Z,7.57
2018-05-11T09:48:32.262Z,7.80
2018-05-11T09:51:00.679Z,8.27
2018-05-11T09:53:29.525Z,8.00
2018-05-11T09:55:57.959Z,7.77
2018-05-11T09:58:27.097Z,8.87
2018-05-11T10:00:54.764Z,7.27
2018-05-11T10:03:23.176Z,7.27
2018-05-11T10:05:51.599Z,7.00
2018-05-11T10:08:20.373Z,7.37
2018-05-11T10:10:48.021Z,5.90
2018-05-11T10:13:16.427Z,6.20
2018-05-11T10:15:44.055Z,5.30
2018-05-11T10:18:12.447Z,5.80
2018-05-11T10:20:41.267Z,5.67
2018-05-11T10:23:09.659Z,5.57
2018-05-11T10:25:37.320Z,6.03
2018-05-11T10:28:06.289Z,6.00
2018-05-11T10:30:35.671Z,5.70
2018-05-11T10:33:04.668Z,5.73
2018-05-11T10:35:33.488Z,5.90
2018-05-11T10:38:02.475Z,6.57
2018-05-11T10:40:30.336Z,6.50
2018-05-11T10:42:58.735Z,6.70
2018-05-11T10:45:27.749Z,7.07
2018-05-11T10:47:55.497Z,6.97
2018-05-11T10:50:23.572Z,6.77
2018-05-11T10:52:51.335Z,7.23
2018-05-11T10:55:19.723Z,6.87
2018-05-11T10:57:47.359Z,7.10
2018-05-11T11:00:15.418Z,7.47
2018-05-11T11:02:43.673Z,6.97
2018-05-11T11:05:11.370Z,8.20
2018-05-11T11:07:39.764Z,8.63
2018-05-11T11:10:08.178Z,7.67
2018-05-11T11:12:36.999Z,7.60
2018-05-11T11:15:05.929Z,8.77
2018-05-11T11:17:34.790Z,8.60
2018-05-11T11:20:03.264Z,8.53
2018-05-11T11:22:30.897Z,8.10
2018-05-11T11:24:59.991Z,8.90
2018-05-11T11:27:29.000Z,8.03
2018-05-11T11:29:57.748Z,8.20
2018-05-11T11:32:26.205Z,9.37
2018-05-11T11:34:54.222Z,8.13
2018-05-11T11:37:22.629Z,8.10
2018-05-11T11:39:50.263Z,7.63
2018-05-11T11:42:19.701Z,8.30
2018-05-11T11:44:47.771Z,9.73
2018-05-11T11:47:16.016Z,8.63
2018-05-11T11:49:45.386Z,7.07
2018-05-11T11:52:13.029Z,8.53
2018-05-11T11:54:41.443Z,9.23
2018-05-11T11:57:10.676Z,9.13
2018-05-11T11:59:39.434Z,9.70
2018-05-11T12:02:07.491Z,10.00
2018-05-11T12:04:35.907Z,9.03
2018-05-11T12:07:03.965Z,9.27
2018-05-11T12:09:32.395Z,8.53
2018-05-11T12:12:00.788Z,8.60
2018-05-11T12:14:29.602Z,7.83
2018-05-11T12:16:57.235Z,9.07
2018-05-11T12:19:25.679Z,7.93
2018-05-11T12:21:54.698Z,9.50
2018-05-11T12:24:23.481Z,8.33
2018-05-11T12:26:51.875Z,8.87
2018-05-11T12:29:19.515Z,8.10
2018-05-11T12:31:48.303Z,8.90
2018-05-11T12:34:16.702Z,9.10
2018-05-11T12:36:45.104Z,8.77
2018-05-11T12:39:12.745Z,8.40
2018-05-11T12:41:41.184Z,7.00
2018-05-11T12:44:08.811Z,9.27
2018-05-11T12:46:36.887Z,9.37
2018-05-11T12:49:05.683Z,9.23
2018-05-11T12:51:33.722Z,8.67
2018-05-11T12:54:01.796Z,7.70
2018-05-11T12:56:30.556Z,9.23
2018-05-11T12:58:58.724Z,8.67
2018-05-11T13:01:26.401Z,9.43
2018-05-11T13:03:54.804Z,9.20
2018-05-11T13:06:22.468Z,10.40
2018-05-11T13:08:50.937Z,10.20
2018-05-11T13:11:20.067Z,10.03
2018-05-11T13:13:48.466Z,9.73
2018-05-11T13:16:16.143Z,9.23
2018-05-11T13:18:44.186Z,8.80
2018-05-11T13:21:12.996Z,8.80
2018-05-11T13:23:41.019Z,8.83
2018-05-11T13:26:10.016Z,8.53
2018-05-11T13:28:38.503Z,7.10
2018-05-11T13:31:06.566Z,8.30
2018-05-11T13:33:34.220Z,7.43
2018-05-11T13:36:02.651Z,8.03
2018-05-11T13:38:31.062Z,9.23
2018-05-11T13:41:00.062Z,8.60
2018-05-11T13:43:28.589Z,9.70
2018-05-11T13:45:56.203Z,9.63
2018-05-11T13:48:24.310Z,9.73
2018-05-11T13:50:51.904Z,8.50
2018-05-11T13:53:20.303Z,8.13
2018-05-11T13:55:47.978Z,7.43
2018-05-11T13:58:16.012Z,7.37
2018-05-11T14:00:43.674Z,9.10
2018-05-11T14:03:11.741Z,7.87
2018-05-11T14:05:39.518Z,8.23
2018-05-11T14:08:07.932Z,9.60
2018-05-11T14:10:35.978Z,8.00
2018-05-11T14:13:04.775Z,8.93
2018-05-11T14:15:32.845Z,9.13
2018-05-11T14:18:01.387Z,8.90
2018-05-11T14:20:29.869Z,10.77
2018-05-11T14:22:59.078Z,8.77
2018-05-11T14:25:28.092Z,9.97
2018-05-11T14:27:56.859Z,9.47
2018-05-11T14:30:25.285Z,9.80
2018-05-11T14:33:05.126Z,27.50
2018-05-11T14:35:33.163Z,9.30
2018-05-11T14:38:01.561Z,7.87
2018-05-11T14:40:30.712Z,8.33
2018-05-11T14:42:59.792Z,9.53
2018-05-11T14:45:27.521Z,8.40
2018-05-11T14:47:55.927Z,7.77
2018-05-11T14:50:23.586Z,7.93
2018-05-11T14:52:52.420Z,7.90
2018-05-11T14:55:20.495Z,6.57
2018-05-11T14:57:48.533Z,5.67
2018-05-11T15:00:16.565Z,5.13
2018-05-11T15:02:44.966Z,5.73
2018-05-11T15:05:14.147Z,6.17
2018-05-11T15:07:42.166Z,5.57
2018-05-11T15:10:11.049Z,5.10
2018-05-11T15:12:39.871Z,5.53
2018-05-11T15:15:08.779Z,5.40
2018-05-11T15:17:37.181Z,5.80
2018-05-11T15:20:04.855Z,4.63
2018-05-11T15:22:33.646Z,5.80
2018-05-11T15:25:02.802Z,7.03
2018-05-11T15:27:30.857Z,5.50
2018-05-11T15:29:58.505Z,6.20
2018-05-11T15:32:27.089Z,6.17
2018-05-11T15:34:56.137Z,5.10
2018-05-11T15:37:24.220Z,5.87
2018-05-11T15:39:51.879Z,8.03
2018-05-11T15:42:20.361Z,7.10
2018-05-11T15:44:49.159Z,6.70
2018-05-11T15:47:17.581Z,6.30
2018-05-11T15:49:45.671Z,5.63
2018-05-11T15:52:13.706Z,16.30
2018-05-11T15:54:42.699Z,41.20
2018-05-11T15:57:10.779Z,63.57
2018-05-11T15:59:39.770Z,14.53
2018-05-11T16:02:08.775Z,8.77
2018-05-11T16:04:37.194Z,26.87
2018-05-11T16:07:04.815Z,7.93
2018-05-11T16:09:32.907Z,8.90
2018-05-11T16:12:00.978Z,14.97
2018-05-11T16:14:28.689Z,12.00
2018-05-11T16:16:57.685Z,8.20
2018-05-11T16:19:25.720Z,9.60
2018-05-11T16:21:54.124Z,12.13
2018-05-11T16:24:21.751Z,8.73
2018-05-11T16:26:50.791Z,10.73
2018-05-11T16:29:19.790Z,8.63
2018-05-11T16:31:48.820Z,68.50
2018-05-11T16:34:16.511Z,16.73
2018-05-11T16:36:45.290Z,4.67
2018-05-11T16:39:13.696Z,4.67
2018-05-11T16:41:41.364Z,4.70
2018-05-11T16:44:10.349Z,5.00
2018-05-11T16:46:38.725Z,4.70
2018-05-11T16:49:07.560Z,4.53
2018-05-11T16:51:36.320Z,4.37
2018-05-11T16:54:04.777Z,4.47
2018-05-11T16:56:32.446Z,4.83
2018-05-11T16:59:00.482Z,5.00
2018-05-11T17:01:28.536Z,4.97
2018-05-11T17:03:57.058Z,4.77
2018-05-11T17:06:25.462Z,4.80
2018-05-11T17:08:54.237Z,3.97
2018-05-11T17:11:22.655Z,3.87
2018-05-11T17:13:50.285Z,4.40
2018-05-11T17:16:19.113Z,4.80
2018-05-11T17:18:48.118Z,4.10
2018-05-11T17:21:17.068Z,4.60
2018-05-11T17:23:45.511Z,4.60
2018-05-11T17:26:13.180Z,3.83
2018-05-11T17:28:41.595Z,3.53
2018-05-11T17:31:10.760Z,4.30
2018-05-11T17:33:38.856Z,3.57
2018-05-11T17:36:06.527Z,4.43
2018-05-11T17:38:34.618Z,5.10
2018-05-11T17:41:02.308Z,4.50
2018-05-11T17:43:30.756Z,4.47
2018-05-11T17:45:59.550Z,4.43
2018-05-11T17:48:28.466Z,4.53
2018-05-11T17:50:57.621Z,4.70
2018-05-11T17:53:26.005Z,4.77
2018-05-11T17:55:54.116Z,4.90
2018-05-11T17:58:21.841Z,4.73
2018-05-11T18:00:50.249Z,4.70
2018-05-11T18:03:19.026Z,5.33
2018-05-11T18:05:47.078Z,4.93
2018-05-11T18:08:15.161Z,4.30
2018-05-11T18:10:43.565Z,4.87
2018-05-11T18:13:11.601Z,4.53
2018-05-11T18:15:39.969Z,4.40
2018-05-11T18:18:08.818Z,4.20
2018-05-11T18:20:36.842Z,4.20
2018-05-11T18:23:05.985Z,4.17
2018-05-11T18:25:34.147Z,4.30
2018-05-11T18:28:02.011Z,3.63
2018-05-11T18:30:30.430Z,4.03
2018-05-11T18:32:58.069Z,4.30
2018-05-11T18:35:26.477Z,3.80
2018-05-11T18:37:54.168Z,3.23
2018-05-11T18:40:21.832Z,3.73
2018-05-11T18:42:49.451Z,4.10
2018-05-11T18:45:17.899Z,4.10
2018-05-11T18:47:45.560Z,4.20
2018-05-11T18:50:13.963Z,4.50
2018-05-11T18:52:41.843Z,4.00
2018-05-11T18:55:09.881Z,3.13
2018-05-11T18:57:38.642Z,4.97
2018-05-11T19:00:07.562Z,4.03
2018-05-11T19:02:35.969Z,3.87
2018-05-11T19:05:04.077Z,4.73
2018-05-11T19:07:32.487Z,4.17
2018-05-11T19:10:00.524Z,4.60
2018-05-11T19:12:28.234Z,4.60
2018-05-11T19:14:56.631Z,5.40
2018-05-11T19:17:25.089Z,5.37
2018-05-11T19:19:52.724Z,5.17
2018-05-11T19:22:21.152Z,5.93
2018-05-11T19:24:49.976Z,5.30
2018-05-11T19:27:18.445Z,5.17
2018-05-11T19:29:46.064Z,5.57
2018-05-11T19:32:14.505Z,5.70
2018-05-11T19:34:43.518Z,5.70
2018-05-11T19:37:11.922Z,5.77
2018-05-11T19:39:39.592Z,5.80
2018-05-11T19:42:08.040Z,5.93
2018-05-11T19:44:35.713Z,5.80
2018-05-11T19:47:04.562Z,5.77
2018-05-11T19:49:33.468Z,5.80
2018-05-11T19:52:02.275Z,6.57
2018-05-11T19:54:31.040Z,5.03
2018-05-11T19:57:01.589Z,5.27
2018-05-11T19:59:30.519Z,5.83
2018-05-11T20:01:58.167Z,5.20
2018-05-11T20:04:26.623Z,4.73
2018-05-11T20:06:55.040Z,5.90
2018-05-11T20:09:23.073Z,5.67
2018-05-11T20:11:52.131Z,6.40
2018-05-11T20:14:21.277Z,6.80
2018-05-11T20:16:49.333Z,6.27
2018-05-11T20:19:18.108Z,5.80
2018-05-11T20:21:46.157Z,5.43
2018-05-11T20:24:14.657Z,7.30
2018-05-11T20:26:42.266Z,6.40
2018-05-11T20:29:10.726Z,6.50
2018-05-11T20:31:39.720Z,5.70
2018-05-11T20:34:09.751Z,6.07
2018-05-11T20:36:37.901Z,5.70
2018-05-11T20:39:06.879Z,5.13
2018-05-11T20:41:34.931Z,6.10
2018-05-11T20:44:03.719Z,5.77
2018-05-11T20:46:31.776Z,5.43
2018-05-11T20:49:00.727Z,6.53
2018-05-11T20:51:28.492Z,6.60
2018-05-11T20:53:56.906Z,6.87
2018-05-11T20:56:25.688Z,6.97
2018-05-11T20:58:53.826Z,7.60
2018-05-11T21:01:21.452Z,5.70
2018-05-11T21:03:49.497Z,7.03
2018-05-11T21:06:18.516Z,6.30
2018-05-11T21:08:46.915Z,6.37
2018-05-11T21:11:14.995Z,8.37
2018-05-11T21:13:43.385Z,8.33
2018-05-11T21:16:12.418Z,7.77
2018-05-11T21:18:41.558Z,9.53
2018-05-11T21:21:09.282Z,9.30
2018-05-11T21:23:38.183Z,10.17
2018-05-11T21:26:06.997Z,10.10
2018-05-11T21:28:35.055Z,11.07
2018-05-11T21:31:03.502Z,11.30
2018-05-11T21:33:31.240Z,10.90
2018-05-11T21:36:00.204Z,11.00
2018-05-11T21:38:28.260Z,11.53
2018-05-11T21:40:55.942Z,11.53
2018-05-11T21:43:24.859Z,11.83
2018-05-11T21:45:53.261Z,10.87
2018-05-11T21:48:22.270Z,12.07
2018-05-11T21:50:51.290Z,12.50
2018-05-11T21:53:19.711Z,11.17
2018-05-11T21:55:48.530Z,11.43
2018-05-11T21:58:16.246Z,11.37
2018-05-11T22:00:44.046Z,12.47
2018-05-11T22:03:13.183Z,12.70
2018-05-11T22:05:41.574Z,12.50
2018-05-11T22:08:09.254Z,11.93
2018-05-11T22:10:36.879Z,13.53
2018-05-11T22:13:05.397Z,12.03
2018-05-11T22:15:33.422Z,11.93
2018-05-11T22:18:02.206Z,12.33
2018-05-11T22:20:31.014Z,12.60
2018-05-11T22:22:59.991Z,12.00
2018-05-11T22:25:28.538Z,11.70
2018-05-11T22:27:56.186Z,10.20
2018-05-11T22:30:24.559Z,11.43
2018-05-11T22:32:52.333Z,10.60
2018-05-11T22:35:20.346Z,11.43
2018-05-11T22:37:48.743Z,11.97
2018-05-11T22:40:16.373Z,12.63
2018-05-11T22:42:45.132Z,11.43
2018-05-11T22:45:12.801Z,12.13
2018-05-11T22:47:41.217Z,12.13
2018-05-11T22:50:09.671Z,11.87
2018-05-11T22:52:38.141Z,11.83
2018-05-11T22:55:07.119Z,12.07
2018-05-11T22:57:36.259Z,12.43
2018-05-11T23:00:04.997Z,12.70
2018-05-11T23:02:33.819Z,12.10
2018-05-11T23:05:01.501Z,11.57
2018-05-11T23:07:30.479Z,11.43
2018-05-11T23:09:59.051Z,12.47
2018-05-11T23:12:28.057Z,12.30
2018-05-11T23:14:56.468Z,11.17
2018-05-11T23:17:24.924Z,12.37
2018-05-11T23:19:53.720Z,12.60
2018-05-11T23:22:21.390Z,12.53
2018-05-11T23:24:49.539Z,12.80
2018-05-11T23:27:17.240Z,12.70
2018-05-11T23:29:45.303Z,13.20
2018-05-11T23:32:14.057Z,12.60
2018-05-11T23:34:42.875Z,11.50
2018-05-11T23:37:11.854Z,11.70
2018-05-11T23:39:39.995Z,10.43
2018-05-11T23:42:08.035Z,12.77
2018-05-11T23:44:36.418Z,13.60
2018-05-11T23:47:05.350Z,13.83
2018-05-11T23:49:34.344Z,13.53
2018-05-11T23:52:02.719Z,14.07
2018-05-11T23:54:31.911Z,13.93
2018-05-11T23:57:00.289Z,13.93
2018-05-11T23:59:28.068Z,12.53
